Time,TemperatureF,DewpointF,PressureIn,WindDirection,WindDirectionDegrees,WindSpeedMPH,WindSpeedGustMPH,Humidity,HourlyPrecipIn,Conditions,Clouds,dailyrainin,SoftwareType,DateUTC
2013-11-01 00:13:00,48.2,46.8,29.64,SSE,157,2.2,-999.0,95,-99.99,,,0.00,Acu-Link.com,2013-11-01 05:13:00,
2013-11-01 00:28:00,48.4,46.8,29.64,NW,315,0.0,-999.0,94,-99.99,,,0.00,Acu-Link.com,2013-11-01 05:28:00,
2013-11-01 00:43:00,47.8,46.2,29.66,South,180,2.7,-999.0,94,-99.99,,,0.00,Acu-Link.com,2013-11-01 05:43:00,
2013-11-01 00:58:00,47.7,46.1,29.65,NE,45,0.0,-999.0,94,-99.99,,,0.00,Acu-Link.com,2013-11-01 05:58:00,
2013-11-01 01:14:00,47.5,45.9,29.66,SSW,202,0.0,-999.0,94,-99.99,,,0.00,Acu-Link.com,2013-11-01 06:14:00,
2013-11-01 01:29:00,47.3,45.9,29.66,WSW,247,1.1,-999.0,95,-99.99,,,0.00,Acu-Link.com,2013-11-01 06:29:00,
2013-11-01 01:44:00,46.9,45.3,29.66,East,90,0.0,-999.0,94,-99.99,,,0.00,Acu-Link.com,2013-11-01 06:44:00,
2013-11-01 01:59:00,46.8,45.4,29.66,NNW,337,1.1,-999.0,95,-99.99,,,0.00,Acu-Link.com,2013-11-01 06:59:00,
2013-11-01 02:14:00,46.8,45.4,29.65,West,270,1.7,-999.0,95,-99.99,,,0.00,Acu-Link.com,2013-11-01 07:14:00,
2013-11-01 02:29:00,46.9,45.3,29.65,WSW,247,0.0,-999.0,94,-99.99,,,0.00,Acu-Link.com,2013-11-01 07:29:00,
2013-11-01 02:44:00,46.8,45.2,29.66,NW,315,2.2,-999.0,94,-99.99,,,0.00,Acu-Link.com,2013-11-01 07:44:00,
2013-11-01 02:59:00,46.6,45.0,29.65,SW,225,0.0,-999.0,94,-99.99,,,0.00,Acu-Link.com,2013-11-01 07:59:00,
2013-11-01 03:15:00,46.0,44.4,29.64,NE,45,1.1,-999.0,94,-99.99,,,0.00,Acu-Link.com,2013-11-01 08:15:00,
2013-11-01 03:30:00,45.3,43.7,29.65,WNW,292,0.0,-999.0,94,-99.99,,,0.00,Acu-Link.com,2013-11-01 08:30:00,
2013-11-01 03:45:00,45.1,43.8,29.64,ENE,67,0.0,-999.0,95,-99.99,,,0.00,Acu-Link.com,2013-11-01 08:45:00,
2013-11-01 04:00:00,45.1,43.8,29.64,SSW,202,0.0,-999.0,95,-99.99,,,0.00,Acu-Link.com,2013-11-01 09:00:00,
2013-11-01 04:15:00,44.8,43.5,29.64,East,90,0.0,-999.0,95,-99.99,,,0.00,Acu-Link.com,2013-11-01 09:15:00,
2013-11-01 04:30:00,44.4,43.1,29.64,South,180,1.7,-999.0,95,-99.99,,,0.00,Acu-Link.com,2013-11-01 09:30:00,
2013-11-01 04:45:00,44.1,43.0,29.64,NE,45,0.0,-999.0,96,-99.99,,,0.00,Acu-Link.com,2013-11-01 09:45:00,
2013-11-01 05:01:00,44.1,43.0,29.63,WNW,292,0.0,-999.0,96,-99.99,,,0.00,Acu-Link.com,2013-11-01 10:01:00,
2013-11-01 05:16:00,44.1,43.0,29.64,North,0,1.7,-999.0,96,-99.99,,,0.00,Acu-Link.com,2013-11-01 10:16:00,
2013-11-01 05:31:00,44.6,43.0,29.64,NW,315,0.0,-999.0,94,-99.99,,,0.00,Acu-Link.com,2013-11-01 10:31:00,
2013-11-01 05:46:00,44.2,42.6,29.66,North,0,0.0,-999.0,94,-99.99,,,0.00,Acu-Link.com,2013-11-01 10:46:00,
2013-11-01 06:01:00,43.9,42.3,29.66,North,0,0.0,-999.0,94,-99.99,,,0.00,Acu-Link.com,2013-11-01 11:01:00,
2013-11-01 06:17:00,43.5,42.2,29.66,East,90,1.1,-999.0,95,-99.99,,,0.00,Acu-Link.com,2013-11-01 11:17:00,
2013-11-01 06:32:00,43.0,41.7,29.67,NW,315,0.0,-999.0,95,-99.99,,,0.00,Acu-Link.com,2013-11-01 11:32:00,
2013-11-01 06:47:00,42.8,41.7,29.68,North,0,0.0,-999.0,96,-99.99,,,0.00,Acu-Link.com,2013-11-01 11:47:00,
2013-11-01 07:02:00,42.4,41.3,29.68,North,0,0.0,-999.0,96,-99.99,,,0.00,Acu-Link.com,2013-11-01 12:02:00,
2013-11-01 07:17:00,42.3,41.2,29.68,North,0,0.0,-999.0,96,-99.99,,,0.00,Acu-Link.com,2013-11-01 12:17:00,
2013-11-01 07:33:00,41.7,40.4,29.69,North,0,0.0,-999.0,95,-99.99,,,0.00,Acu-Link.com,2013-11-01 12:33:00,
2013-11-01 07:48:00,41.7,40.6,29.69,North,0,0.0,-999.0,96,-99.99,,,0.00,Acu-Link.com,2013-11-01 12:48:00,
2013-11-01 08:03:00,42.6,41.8,29.70,North,0,0.0,-999.0,97,-99.99,,,0.00,Acu-Link.com,2013-11-01 13:03:00,
2013-11-01 08:18:00,45.5,43.9,29.71,North,0,0.0,-999.0,94,-99.99,,,0.00,Acu-Link.com,2013-11-01 13:18:00,
2013-11-01 08:33:00,48.0,45.2,29.71,West,270,1.7,-999.0,90,-99.99,,,0.00,Acu-Link.com,2013-11-01 13:33:00,
2013-11-01 08:49:00,48.4,44.7,29.72,West,270,1.7,-999.0,87,-99.99,,,0.00,Acu-Link.com,2013-11-01 13:49:00,
2013-11-01 09:04:00,48.7,44.4,29.73,ESE,112,1.7,-999.0,85,-99.99,,,0.00,Acu-Link.com,2013-11-01 14:04:00,
2013-11-01 09:19:00,50.2,45.6,29.73,West,270,0.0,-999.0,84,-99.99,,,0.00,Acu-Link.com,2013-11-01 14:19:00,
2013-11-01 09:34:00,51.6,45.3,29.74,West,270,1.7,-999.0,79,-99.99,,,0.00,Acu-Link.com,2013-11-01 14:34:00,
2013-11-01 09:49:00,53.8,47.8,29.74,ESE,112,1.7,-999.0,80,-99.99,,,0.00,Acu-Link.com,2013-11-01 14:49:00,
2013-11-01 10:05:00,54.9,46.4,29.74,West,270,1.7,-999.0,73,-99.99,,,0.00,Acu-Link.com,2013-11-01 15:05:00,
2013-11-01 10:20:00,55.6,46.3,29.74,WNW,292,1.7,-999.0,71,-99.99,,,0.00,Acu-Link.com,2013-11-01 15:20:00,
2013-11-01 10:35:00,57.2,47.9,29.74,ESE,112,1.7,-999.0,71,-99.99,,,0.00,Acu-Link.com,2013-11-01 15:35:00,
2013-11-01 10:50:00,57.7,47.6,29.74,WSW,247,0.0,-999.0,69,-99.99,,,0.00,Acu-Link.com,2013-11-01 15:50:00,
2013-11-01 11:05:00,59.2,46.6,29.74,West,270,2.2,-999.0,63,-99.99,,,0.00,Acu-Link.com,2013-11-01 16:05:00,
2013-11-01 11:21:00,61.3,46.4,29.74,WNW,292,1.7,-999.0,58,-99.99,,,0.00,Acu-Link.com,2013-11-01 16:21:00,
2013-11-01 11:36:00,61.7,45.8,29.74,WNW,292,2.7,-999.0,56,-99.99,,,0.00,Acu-Link.com,2013-11-01 16:36:00,
2013-11-01 11:51:00,61.3,44.0,29.75,West,270,2.2,-999.0,53,-99.99,,,0.00,Acu-Link.com,2013-11-01 16:51:00,
2013-11-01 12:06:00,63.5,45.0,29.74,NNW,337,2.2,-999.0,51,-99.99,,,0.00,Acu-Link.com,2013-11-01 17:06:00,
2013-11-01 12:21:00,63.9,45.4,29.74,NNW,337,1.1,-999.0,51,-99.99,,,0.00,Acu-Link.com,2013-11-01 17:21:00,
2013-11-01 12:36:00,64.6,43.3,29.74,West,270,1.7,-999.0,46,-99.99,,,0.00,Acu-Link.com,2013-11-01 17:36:00,
2013-11-01 12:52:00,65.1,42.0,29.74,West,270,2.7,-999.0,43,-99.99,,,0.00,Acu-Link.com,2013-11-01 17:52:00,
2013-11-01 13:07:00,65.5,41.8,29.73,West,270,3.2,-999.0,42,-99.99,,,0.00,Acu-Link.com,2013-11-01 18:07:00,
2013-11-01 13:22:00,66.4,42.0,29.73,WNW,292,1.7,-999.0,41,-99.99,,,0.00,Acu-Link.com,2013-11-01 18:22:00,
2013-11-01 13:37:00,66.0,41.0,29.72,WNW,292,3.2,-999.0,40,-99.99,,,0.00,Acu-Link.com,2013-11-01 18:37:00,
2013-11-01 13:53:00,65.1,41.4,29.71,NW,315,0.0,-999.0,42,-99.99,,,0.00,Acu-Link.com,2013-11-01 18:53:00,
2013-11-01 14:08:00,66.0,42.2,29.71,West,270,2.7,-999.0,42,-99.99,,,0.00,Acu-Link.com,2013-11-01 19:08:00,
2013-11-01 14:23:00,66.4,41.3,29.71,West,270,2.7,-999.0,40,-99.99,,,0.00,Acu-Link.com,2013-11-01 19:23:00,
2013-11-01 14:38:00,66.6,42.2,29.71,WSW,247,2.7,-999.0,41,-99.99,,,0.00,Acu-Link.com,2013-11-01 19:38:00,
2013-11-01 14:53:00,66.2,40.5,29.70,WNW,292,2.7,-999.0,39,-99.99,,,0.00,Acu-Link.com,2013-11-01 19:53:00,
2013-11-01 15:09:00,66.2,40.5,29.70,West,270,4.2,-999.0,39,-99.99,,,0.00,Acu-Link.com,2013-11-01 20:09:00,
2013-11-01 15:24:00,67.1,42.0,29.70,SW,225,2.2,-999.0,40,-99.99,,,0.00,Acu-Link.com,2013-11-01 20:24:00,
2013-11-01 15:39:00,66.0,41.0,29.71,WNW,292,4.2,-999.0,40,-99.99,,,0.00,Acu-Link.com,2013-11-01 20:39:00,
2013-11-01 15:54:00,66.2,41.8,29.71,WNW,292,3.2,-999.0,41,-99.99,,,0.00,Acu-Link.com,2013-11-01 20:54:00,
2013-11-01 16:10:00,65.3,40.4,29.71,West,270,4.2,-999.0,40,-99.99,,,0.00,Acu-Link.com,2013-11-01 21:10:00,
2013-11-01 16:25:00,64.9,39.3,29.71,West,270,3.2,-999.0,39,-99.99,,,0.00,Acu-Link.com,2013-11-01 21:25:00,
2013-11-01 16:40:00,64.2,41.2,29.71,West,270,2.7,-999.0,43,-99.99,,,0.00,Acu-Link.com,2013-11-01 21:40:00,
2013-11-01 16:55:00,63.5,41.2,29.72,West,270,3.7,-999.0,44,-99.99,,,0.00,Acu-Link.com,2013-11-01 21:55:00,
2013-11-01 17:10:00,63.0,42.5,29.73,West,270,2.7,-999.0,47,-99.99,,,0.00,Acu-Link.com,2013-11-01 22:10:00,
2013-11-01 17:25:00,62.8,42.3,29.73,West,270,4.7,-999.0,47,-99.99,,,0.00,Acu-Link.com,2013-11-01 22:25:00,
2013-11-01 17:41:00,62.1,43.2,29.74,West,270,2.2,-999.0,50,-99.99,,,0.00,Acu-Link.com,2013-11-01 22:41:00,
2013-11-01 17:56:00,61.0,43.7,29.75,West,270,1.7,-999.0,53,-99.99,,,0.00,Acu-Link.com,2013-11-01 22:56:00,
2013-11-01 18:11:00,59.9,43.2,29.74,West,270,2.2,-999.0,54,-99.99,,,0.00,Acu-Link.com,2013-11-01 23:11:00,
2013-11-01 18:27:00,59.4,45.5,29.75,WSW,247,0.0,-999.0,60,-99.99,,,0.00,Acu-Link.com,2013-11-01 23:27:00,
2013-11-01 18:42:00,57.2,45.5,29.76,WSW,247,0.0,-999.0,65,-99.99,,,0.00,Acu-Link.com,2013-11-01 23:42:00,
2013-11-01 18:57:00,55.9,46.6,29.77,WSW,247,0.0,-999.0,71,-99.99,,,0.00,Acu-Link.com,2013-11-01 23:57:00,
2013-11-01 19:12:00,55.2,43.2,29.78,NNW,337,2.7,-999.0,64,-99.99,,,0.00,Acu-Link.com,2013-11-02 00:12:00,
2013-11-01 19:27:00,55.9,43.5,29.79,West,270,1.7,-999.0,63,-99.99,,,0.00,Acu-Link.com,2013-11-02 00:27:00,
2013-11-01 19:42:00,55.4,44.2,29.80,WNW,292,1.1,-999.0,66,-99.99,,,0.00,Acu-Link.com,2013-11-02 00:42:00,
2013-11-01 19:57:00,54.5,44.2,29.81,West,270,1.7,-999.0,68,-99.99,,,0.00,Acu-Link.com,2013-11-02 00:57:00,
2013-11-01 20:12:00,54.3,44.0,29.81,West,270,3.2,-999.0,68,-99.99,,,0.00,Acu-Link.com,2013-11-02 01:12:00,
2013-11-01 20:28:00,53.8,43.5,29.81,WNW,292,2.7,-999.0,68,-99.99,,,0.00,Acu-Link.com,2013-11-02 01:28:00,
2013-11-01 20:43:00,53.2,43.7,29.83,West,270,2.2,-999.0,70,-99.99,,,0.00,Acu-Link.com,2013-11-02 01:43:00,
2013-11-01 20:58:00,52.7,43.2,29.83,West,270,2.2,-999.0,70,-99.99,,,0.00,Acu-Link.com,2013-11-02 01:58:00,
2013-11-01 21:14:00,52.0,42.9,29.84,West,270,1.1,-999.0,71,-99.99,,,0.00,Acu-Link.com,2013-11-02 02:14:00,
2013-11-01 21:29:00,51.3,42.9,29.85,WSW,247,1.1,-999.0,73,-99.99,,,0.00,Acu-Link.com,2013-11-02 02:29:00,
2013-11-01 21:44:00,50.5,43.6,29.85,SSW,202,0.0,-999.0,77,-99.99,,,0.00,Acu-Link.com,2013-11-02 02:44:00,
2013-11-01 21:59:00,49.6,43.4,29.86,SSE,157,0.0,-999.0,79,-99.99,,,0.00,Acu-Link.com,2013-11-02 02:59:00,
2013-11-01 22:14:00,48.6,43.7,29.87,SSW,202,0.0,-999.0,83,-99.99,,,0.00,Acu-Link.com,2013-11-02 03:14:00,
2013-11-01 22:30:00,47.1,42.5,29.87,West,270,0.0,-999.0,84,-99.99,,,0.00,Acu-Link.com,2013-11-02 03:30:00,
2013-11-01 22:45:00,46.2,41.6,29.87,SE,135,0.0,-999.0,84,-99.99,,,0.00,Acu-Link.com,2013-11-02 03:45:00,
2013-11-01 23:00:00,45.3,41.1,29.87,SE,135,0.0,-999.0,85,-99.99,,,0.00,Acu-Link.com,2013-11-02 04:00:00,
2013-11-01 23:15:00,44.4,40.8,29.88,ESE,112,0.0,-999.0,87,-99.99,,,0.00,Acu-Link.com,2013-11-02 04:15:00,
2013-11-01 23:30:00,43.7,40.1,29.88,South,180,0.0,-999.0,87,-99.99,,,0.00,Acu-Link.com,2013-11-02 04:30:00,
2013-11-01 23:45:00,43.0,40.6,29.87,NE,45,0.0,-999.0,91,-99.99,,,0.00,Acu-Link.com,2013-11-02 04:45:00,